sensor_id;sensor_type;location;lat;lon;timestamp;P1;durP1;ratioP1;P2;durP2;ratioP2
64868;SDS011;51349;52.424;10.840;2023-02-05T00:00:18;6.17;;;5.03;;
64868;SDS011;51349;52.424;10.840;2023-02-05T00:05:19;7.63;;;4.53;;
64868;SDS011;51349;52.424;10.840;2023-02-05T00:10:19;4.83;;;4.33;;
64868;SDS011;51349;52.424;10.840;2023-02-05T00:15:20;4.67;;;4.20;;
64868;SDS011;51349;52.424;10.840;2023-02-05T00:20:20;4.50;;;3.53;;
64868;SDS011;51349;52.424;10.840;2023-02-05T00:25:21;4.70;;;4.00;;
64868;SDS011;51349;52.424;10.840;2023-02-05T00:30:22;3.83;;;3.53;;
64868;SDS011;51349;52.424;10.840;2023-02-05T00:35:22;4.30;;;3.90;;
64868;SDS011;51349;52.424;10.840;2023-02-05T00:40:23;3.70;;;3.27;;
64868;SDS011;51349;52.424;10.840;2023-02-05T00:45:24;3.67;;;3.30;;
64868;SDS011;51349;52.424;10.840;2023-02-05T00:50:24;3.60;;;3.30;;
64868;SDS011;51349;52.424;10.840;2023-02-05T00:55:25;4.27;;;3.43;;
64868;SDS011;51349;52.424;10.840;2023-02-05T01:00:26;4.67;;;3.07;;
64868;SDS011;51349;52.424;10.840;2023-02-05T01:05:27;3.27;;;2.97;;
64868;SDS011;51349;52.424;10.840;2023-02-05T01:10:29;3.50;;;2.70;;
64868;SDS011;51349;52.424;10.840;2023-02-05T01:15:30;3.53;;;2.97;;
64868;SDS011;51349;52.424;10.840;2023-02-05T01:20:31;2.97;;;2.70;;
64868;SDS011;51349;52.424;10.840;2023-02-05T01:25:31;2.83;;;2.40;;
64868;SDS011;51349;52.424;10.840;2023-02-05T01:30:32;2.80;;;2.53;;
64868;SDS011;51349;52.424;10.840;2023-02-05T01:35:35;4.37;;;2.97;;
64868;SDS011;51349;52.424;10.840;2023-02-05T01:40:36;4.30;;;3.03;;
64868;SDS011;51349;52.424;10.840;2023-02-05T01:50:52;3.37;;;3.07;;
64868;SDS011;51349;52.424;10.840;2023-02-05T01:55:59;3.33;;;3.03;;
64868;SDS011;51349;52.424;10.840;2023-02-05T02:01:14;3.47;;;2.67;;
64868;SDS011;51349;52.424;10.840;2023-02-05T02:06:14;4.67;;;2.70;;
64868;SDS011;51349;52.424;10.840;2023-02-05T02:11:15;3.43;;;2.70;;
64868;SDS011;51349;52.424;10.840;2023-02-05T02:16:22;3.10;;;2.90;;
64868;SDS011;51349;52.424;10.840;2023-02-05T02:22:25;3.07;;;2.77;;
64868;SDS011;51349;52.424;10.840;2023-02-05T02:32:35;3.00;;;2.47;;
64868;SDS011;51349;52.424;10.840;2023-02-05T02:37:48;2.83;;;2.63;;
64868;SDS011;51349;52.424;10.840;2023-02-05T02:48:23;2.97;;;2.67;;
64868;SDS011;51349;52.424;10.840;2023-02-05T02:53:29;5.10;;;3.03;;
64868;SDS011;51349;52.424;10.840;2023-02-05T02:58:36;2.83;;;2.53;;
64868;SDS011;51349;52.424;10.840;2023-02-05T03:03:43;2.70;;;2.50;;
64868;SDS011;51349;52.424;10.840;2023-02-05T03:09:03;5.10;;;2.77;;
64868;SDS011;51349;52.424;10.840;2023-02-05T03:14:35;3.20;;;2.47;;
64868;SDS011;51349;52.424;10.840;2023-02-05T03:19:36;2.77;;;2.50;;
64868;SDS011;51349;52.424;10.840;2023-02-05T03:24:37;2.77;;;2.47;;
64868;SDS011;51349;52.424;10.840;2023-02-05T03:29:39;3.07;;;2.50;;
64868;SDS011;51349;52.424;10.840;2023-02-05T03:45:29;2.63;;;2.43;;
64868;SDS011;51349;52.424;10.840;2023-02-05T04:01:48;3.10;;;2.83;;
64868;SDS011;51349;52.424;10.840;2023-02-05T04:06:50;2.83;;;2.57;;
64868;SDS011;51349;52.424;10.840;2023-02-05T04:11:52;3.17;;;2.40;;
64868;SDS011;51349;52.424;10.840;2023-02-05T04:16:52;4.50;;;2.93;;
64868;SDS011;51349;52.424;10.840;2023-02-05T04:21:53;3.40;;;2.60;;
64868;SDS011;51349;52.424;10.840;2023-02-05T04:26:54;3.73;;;2.83;;
64868;SDS011;51349;52.424;10.840;2023-02-05T04:31:55;3.73;;;2.80;;
64868;SDS011;51349;52.424;10.840;2023-02-05T04:36:56;4.20;;;2.97;;
64868;SDS011;51349;52.424;10.840;2023-02-05T04:41:57;3.50;;;2.97;;
64868;SDS011;51349;52.424;10.840;2023-02-05T04:46:57;4.93;;;3.30;;
64868;SDS011;51349;52.424;10.840;2023-02-05T04:51:58;3.53;;;3.03;;
64868;SDS011;51349;52.424;10.840;2023-02-05T04:56:59;4.03;;;2.80;;
64868;SDS011;51349;52.424;10.840;2023-02-05T05:01:59;3.40;;;3.10;;
64868;SDS011;51349;52.424;10.840;2023-02-05T05:07:00;3.50;;;3.00;;
64868;SDS011;51349;52.424;10.840;2023-02-05T05:12:01;3.70;;;2.83;;
64868;SDS011;51349;52.424;10.840;2023-02-05T05:17:02;4.57;;;3.50;;
64868;SDS011;51349;52.424;10.840;2023-02-05T05:22:03;3.87;;;3.23;;
64868;SDS011;51349;52.424;10.840;2023-02-05T05:27:03;6.40;;;2.90;;
64868;SDS011;51349;52.424;10.840;2023-02-05T05:32:04;3.40;;;3.10;;
64868;SDS011;51349;52.424;10.840;2023-02-05T05:37:05;3.83;;;3.37;;
64868;SDS011;51349;52.424;10.840;2023-02-05T05:42:05;4.07;;;3.33;;
64868;SDS011;51349;52.424;10.840;2023-02-05T05:47:25;3.97;;;3.30;;
64868;SDS011;51349;52.424;10.840;2023-02-05T05:52:25;3.87;;;3.47;;
64868;SDS011;51349;52.424;10.840;2023-02-05T05:57:26;3.50;;;3.20;;
64868;SDS011;51349;52.424;10.840;2023-02-05T06:02:27;7.03;;;3.50;;
64868;SDS011;51349;52.424;10.840;2023-02-05T06:07:27;4.43;;;3.53;;
64868;SDS011;51349;52.424;10.840;2023-02-05T06:12:28;4.67;;;3.50;;
64868;SDS011;51349;52.424;10.840;2023-02-05T06:17:29;4.03;;;3.63;;
64868;SDS011;51349;52.424;10.840;2023-02-05T06:22:29;4.10;;;3.70;;
64868;SDS011;51349;52.424;10.840;2023-02-05T06:27:30;4.30;;;3.90;;
64868;SDS011;51349;52.424;10.840;2023-02-05T06:32:31;4.50;;;3.27;;
64868;SDS011;51349;52.424;10.840;2023-02-05T06:37:31;3.37;;;3.00;;
64868;SDS011;51349;52.424;10.840;2023-02-05T06:42:32;3.67;;;3.23;;
64868;SDS011;51349;52.424;10.840;2023-02-05T06:47:33;4.73;;;3.47;;
64868;SDS011;51349;52.424;10.840;2023-02-05T06:52:33;3.43;;;2.93;;
64868;SDS011;51349;52.424;10.840;2023-02-05T06:57:34;4.90;;;4.20;;
64868;SDS011;51349;52.424;10.840;2023-02-05T07:02:34;5.83;;;3.70;;
64868;SDS011;51349;52.424;10.840;2023-02-05T07:07:35;5.33;;;3.70;;
64868;SDS011;51349;52.424;10.840;2023-02-05T07:12:36;3.63;;;3.30;;
64868;SDS011;51349;52.424;10.840;2023-02-05T07:17:36;5.43;;;4.40;;
64868;SDS011;51349;52.424;10.840;2023-02-05T07:22:38;4.77;;;4.10;;
64868;SDS011;51349;52.424;10.840;2023-02-05T07:27:39;4.80;;;3.90;;
64868;SDS011;51349;52.424;10.840;2023-02-05T07:32:39;5.87;;;4.27;;
64868;SDS011;51349;52.424;10.840;2023-02-05T07:37:40;5.27;;;4.33;;
64868;SDS011;51349;52.424;10.840;2023-02-05T07:42:40;5.67;;;4.50;;
64868;SDS011;51349;52.424;10.840;2023-02-05T07:47:41;7.37;;;5.47;;
64868;SDS011;51349;52.424;10.840;2023-02-05T07:52:42;7.30;;;5.17;;
64868;SDS011;51349;52.424;10.840;2023-02-05T07:57:42;10.20;;;5.63;;
64868;SDS011;51349;52.424;10.840;2023-02-05T08:02:43;6.13;;;5.10;;
64868;SDS011;51349;52.424;10.840;2023-02-05T08:07:44;7.43;;;5.47;;
64868;SDS011;51349;52.424;10.840;2023-02-05T08:12:45;5.67;;;4.83;;
64868;SDS011;51349;52.424;10.840;2023-02-05T08:17:46;6.50;;;5.80;;
64868;SDS011;51349;52.424;10.840;2023-02-05T08:22:47;12.50;;;7.63;;
64868;SDS011;51349;52.424;10.840;2023-02-05T08:27:48;9.03;;;5.53;;
64868;SDS011;51349;52.424;10.840;2023-02-05T08:32:49;7.07;;;5.20;;
64868;SDS011;51349;52.424;10.840;2023-02-05T08:37:50;6.27;;;5.30;;
64868;SDS011;51349;52.424;10.840;2023-02-05T08:42:51;5.77;;;5.27;;
64868;SDS011;51349;52.424;10.840;2023-02-05T08:47:56;5.97;;;5.43;;
64868;SDS011;51349;52.424;10.840;2023-02-05T08:52:56;14.53;;;9.07;;
64868;SDS011;51349;52.424;10.840;2023-02-05T08:57:57;7.20;;;5.50;;
64868;SDS011;51349;52.424;10.840;2023-02-05T09:02:58;5.50;;;5.00;;
64868;SDS011;51349;52.424;10.840;2023-02-05T09:07:58;6.43;;;5.83;;
64868;SDS011;51349;52.424;10.840;2023-02-05T09:12:59;8.73;;;5.37;;
64868;SDS011;51349;52.424;10.840;2023-02-05T09:17:59;7.50;;;5.03;;
64868;SDS011;51349;52.424;10.840;2023-02-05T09:23:00;5.73;;;5.20;;
64868;SDS011;51349;52.424;10.840;2023-02-05T09:28:01;6.10;;;5.50;;
64868;SDS011;51349;52.424;10.840;2023-02-05T09:33:02;5.30;;;4.80;;
64868;SDS011;51349;52.424;10.840;2023-02-05T09:38:02;6.07;;;5.40;;
64868;SDS011;51349;52.424;10.840;2023-02-05T09:53:53;8.67;;;5.70;;
64868;SDS011;51349;52.424;10.840;2023-02-05T09:58:56;7.47;;;5.70;;
64868;SDS011;51349;52.424;10.840;2023-02-05T10:04:01;6.33;;;5.70;;
64868;SDS011;51349;52.424;10.840;2023-02-05T10:14:43;8.77;;;5.60;;
64868;SDS011;51349;52.424;10.840;2023-02-05T10:30:50;6.83;;;4.63;;
64868;SDS011;51349;52.424;10.840;2023-02-05T10:36:12;8.23;;;6.60;;
64868;SDS011;51349;52.424;10.840;2023-02-05T10:41:25;7.50;;;6.20;;
64868;SDS011;51349;52.424;10.840;2023-02-05T10:46:29;11.83;;;9.13;;
64868;SDS011;51349;52.424;10.840;2023-02-05T10:51:34;12.07;;;6.60;;
64868;SDS011;51349;52.424;10.840;2023-02-05T10:56:39;6.90;;;6.10;;
64868;SDS011;51349;52.424;10.840;2023-02-05T11:01:42;6.63;;;5.43;;
64868;SDS011;51349;52.424;10.840;2023-02-05T11:06:44;6.83;;;6.23;;
64868;SDS011;51349;52.424;10.840;2023-02-05T11:11:55;6.23;;;4.70;;
64868;SDS011;51349;52.424;10.840;2023-02-05T11:16:57;6.60;;;5.00;;
64868;SDS011;51349;52.424;10.840;2023-02-05T11:22:03;5.73;;;4.80;;
64868;SDS011;51349;52.424;10.840;2023-02-05T11:27:09;4.93;;;4.30;;
64868;SDS011;51349;52.424;10.840;2023-02-05T11:32:18;5.77;;;5.27;;
64868;SDS011;51349;52.424;10.840;2023-02-05T11:37:30;6.67;;;5.07;;
64868;SDS011;51349;52.424;10.840;2023-02-05T11:42:31;6.77;;;5.33;;
64868;SDS011;51349;52.424;10.840;2023-02-05T11:47:33;6.10;;;5.60;;
64868;SDS011;51349;52.424;10.840;2023-02-05T11:52:38;5.50;;;4.80;;
64868;SDS011;51349;52.424;10.840;2023-02-05T11:57:38;12.03;;;8.17;;
64868;SDS011;51349;52.424;10.840;2023-02-05T12:02:41;4.97;;;4.50;;
64868;SDS011;51349;52.424;10.840;2023-02-05T12:08:00;5.03;;;4.53;;
64868;SDS011;51349;52.424;10.840;2023-02-05T12:34:27;5.80;;;4.80;;
64868;SDS011;51349;52.424;10.840;2023-02-05T12:39:38;8.17;;;5.43;;
64868;SDS011;51349;52.424;10.840;2023-02-05T12:55:06;6.50;;;5.90;;
64868;SDS011;51349;52.424;10.840;2023-02-05T13:00:21;5.60;;;4.73;;
64868;SDS011;51349;52.424;10.840;2023-02-05T13:05:40;23.03;;;17.77;;
64868;SDS011;51349;52.424;10.840;2023-02-05T13:10:56;6.33;;;5.17;;
64868;SDS011;51349;52.424;10.840;2023-02-05T13:16:06;6.87;;;6.20;;
64868;SDS011;51349;52.424;10.840;2023-02-05T13:21:15;7.27;;;6.63;;
64868;SDS011;51349;52.424;10.840;2023-02-05T13:26:38;10.43;;;9.53;;
64868;SDS011;51349;52.424;10.840;2023-02-05T13:32:03;5.97;;;5.47;;
64868;SDS011;51349;52.424;10.840;2023-02-05T14:03:54;7.20;;;5.60;;
64868;SDS011;51349;52.424;10.840;2023-02-05T14:24:46;9.40;;;7.27;;
64868;SDS011;51349;52.424;10.840;2023-02-05T14:29:48;9.03;;;7.20;;
64868;SDS011;51349;52.424;10.840;2023-02-05T14:34:57;8.13;;;6.03;;
64868;SDS011;51349;52.424;10.840;2023-02-05T14:40:09;8.90;;;5.97;;
64868;SDS011;51349;52.424;10.840;2023-02-05T14:45:22;5.30;;;4.80;;
64868;SDS011;51349;52.424;10.840;2023-02-05T14:50:27;5.47;;;4.30;;
64868;SDS011;51349;52.424;10.840;2023-02-05T14:55:39;5.20;;;4.63;;
64868;SDS011;51349;52.424;10.840;2023-02-05T15:00:42;7.97;;;6.33;;
64868;SDS011;51349;52.424;10.840;2023-02-05T15:10:48;8.40;;;5.40;;
64868;SDS011;51349;52.424;10.840;2023-02-05T15:21:25;4.73;;;4.33;;
64868;SDS011;51349;52.424;10.840;2023-02-05T15:26:33;6.83;;;5.07;;
64868;SDS011;51349;52.424;10.840;2023-02-05T15:31:47;6.97;;;6.27;;
64868;SDS011;51349;52.424;10.840;2023-02-05T15:36:52;7.03;;;5.27;;
64868;SDS011;51349;52.424;10.840;2023-02-05T15:42:00;8.07;;;6.20;;
64868;SDS011;51349;52.424;10.840;2023-02-05T15:47:06;7.43;;;6.60;;
64868;SDS011;51349;52.424;10.840;2023-02-05T15:52:25;8.07;;;6.87;;
64868;SDS011;51349;52.424;10.840;2023-02-05T15:57:29;7.97;;;6.80;;
64868;SDS011;51349;52.424;10.840;2023-02-05T16:02:30;13.87;;;9.77;;
64868;SDS011;51349;52.424;10.840;2023-02-05T16:07:35;7.87;;;7.13;;
64868;SDS011;51349;52.424;10.840;2023-02-05T16:12:55;7.33;;;6.47;;
64868;SDS011;51349;52.424;10.840;2023-02-05T16:17:59;21.10;;;11.73;;
64868;SDS011;51349;52.424;10.840;2023-02-05T16:23:06;21.30;;;13.03;;
64868;SDS011;51349;52.424;10.840;2023-02-05T16:28:58;17.80;;;12.23;;
64868;SDS011;51349;52.424;10.840;2023-02-05T16:33:49;19.80;;;12.97;;
64868;SDS011;51349;52.424;10.840;2023-02-05T16:39:35;20.80;;;13.83;;
64868;SDS011;51349;52.424;10.840;2023-02-05T16:44:49;17.77;;;12.37;;
64868;SDS011;51349;52.424;10.840;2023-02-05T16:50:33;12.67;;;9.07;;
64868;SDS011;51349;52.424;10.840;2023-02-05T16:55:42;10.30;;;7.53;;
64868;SDS011;51349;52.424;10.840;2023-02-05T17:00:49;10.20;;;7.53;;
64868;SDS011;51349;52.424;10.840;2023-02-05T17:05:59;10.50;;;8.07;;
64868;SDS011;51349;52.424;10.840;2023-02-05T17:11:05;10.50;;;8.37;;
64868;SDS011;51349;52.424;10.840;2023-02-05T17:16:26;10.37;;;7.40;;
64868;SDS011;51349;52.424;10.840;2023-02-05T17:21:29;12.70;;;8.07;;
64868;SDS011;51349;52.424;10.840;2023-02-05T17:26:36;11.63;;;8.70;;
64868;SDS011;51349;52.424;10.840;2023-02-05T17:31:39;12.17;;;9.40;;
64868;SDS011;51349;52.424;10.840;2023-02-05T17:36:40;10.13;;;8.77;;
64868;SDS011;51349;52.424;10.840;2023-02-05T17:41:41;12.47;;;9.70;;
64868;SDS011;51349;52.424;10.840;2023-02-05T17:47:01;13.67;;;8.93;;
64868;SDS011;51349;52.424;10.840;2023-02-05T17:52:05;13.90;;;9.70;;
64868;SDS011;51349;52.424;10.840;2023-02-05T17:57:12;13.40;;;11.20;;
64868;SDS011;51349;52.424;10.840;2023-02-05T18:02:14;15.27;;;11.50;;
64868;SDS011;51349;52.424;10.840;2023-02-05T18:12:30;16.60;;;11.97;;
64868;SDS011;51349;52.424;10.840;2023-02-05T18:17:32;25.00;;;16.00;;
64868;SDS011;51349;52.424;10.840;2023-02-05T18:22:33;19.33;;;12.97;;
64868;SDS011;51349;52.424;10.840;2023-02-05T18:27:34;10.60;;;8.73;;
64868;SDS011;51349;52.424;10.840;2023-02-05T18:32:34;14.87;;;11.30;;
64868;SDS011;51349;52.424;10.840;2023-02-05T18:37:35;14.07;;;9.87;;
64868;SDS011;51349;52.424;10.840;2023-02-05T18:42:36;12.63;;;9.20;;
64868;SDS011;51349;52.424;10.840;2023-02-05T18:47:36;13.47;;;10.40;;
64868;SDS011;51349;52.424;10.840;2023-02-05T18:52:37;10.77;;;9.07;;
64868;SDS011;51349;52.424;10.840;2023-02-05T18:57:38;12.87;;;9.13;;
64868;SDS011;51349;52.424;10.840;2023-02-05T19:02:39;10.30;;;8.27;;
64868;SDS011;51349;52.424;10.840;2023-02-05T19:07:40;10.73;;;8.37;;
64868;SDS011;51349;52.424;10.840;2023-02-05T19:12:43;10.80;;;9.07;;
64868;SDS011;51349;52.424;10.840;2023-02-05T19:17:44;10.80;;;9.40;;
64868;SDS011;51349;52.424;10.840;2023-02-05T19:22:44;13.03;;;10.03;;
64868;SDS011;51349;52.424;10.840;2023-02-05T19:27:45;14.17;;;11.00;;
64868;SDS011;51349;52.424;10.840;2023-02-05T19:32:46;13.67;;;9.57;;
64868;SDS011;51349;52.424;10.840;2023-02-05T19:37:46;12.07;;;9.50;;
64868;SDS011;51349;52.424;10.840;2023-02-05T19:42:47;11.43;;;9.13;;
64868;SDS011;51349;52.424;10.840;2023-02-05T19:47:48;11.90;;;9.70;;
64868;SDS011;51349;52.424;10.840;2023-02-05T19:52:50;17.03;;;11.90;;
64868;SDS011;51349;52.424;10.840;2023-02-05T19:57:52;16.70;;;12.73;;
64868;SDS011;51349;52.424;10.840;2023-02-05T20:02:53;15.23;;;10.93;;
64868;SDS011;51349;52.424;10.840;2023-02-05T20:07:57;14.53;;;10.73;;
64868;SDS011;51349;52.424;10.840;2023-02-05T20:12:58;16.70;;;11.17;;
64868;SDS011;51349;52.424;10.840;2023-02-05T20:17:59;16.23;;;12.13;;
64868;SDS011;51349;52.424;10.840;2023-02-05T20:22:59;16.00;;;12.43;;
64868;SDS011;51349;52.424;10.840;2023-02-05T20:28:00;11.80;;;10.50;;
64868;SDS011;51349;52.424;10.840;2023-02-05T20:33:01;14.70;;;11.27;;
64868;SDS011;51349;52.424;10.840;2023-02-05T20:38:01;16.37;;;11.23;;
64868;SDS011;51349;52.424;10.840;2023-02-05T20:43:02;16.67;;;12.63;;
64868;SDS011;51349;52.424;10.840;2023-02-05T20:48:06;16.03;;;12.17;;
64868;SDS011;51349;52.424;10.840;2023-02-05T20:53:06;16.47;;;11.67;;
64868;SDS011;51349;52.424;10.840;2023-02-05T20:58:07;16.83;;;11.73;;
64868;SDS011;51349;52.424;10.840;2023-02-05T21:03:08;14.23;;;11.27;;
64868;SDS011;51349;52.424;10.840;2023-02-05T21:08:08;13.47;;;10.50;;
64868;SDS011;51349;52.424;10.840;2023-02-05T21:13:09;11.23;;;9.57;;
64868;SDS011;51349;52.424;10.840;2023-02-05T21:18:10;11.37;;;9.87;;
64868;SDS011;51349;52.424;10.840;2023-02-05T21:23:11;14.10;;;10.57;;
64868;SDS011;51349;52.424;10.840;2023-02-05T21:28:12;12.53;;;10.20;;
64868;SDS011;51349;52.424;10.840;2023-02-05T21:33:13;13.33;;;10.57;;
64868;SDS011;51349;52.424;10.840;2023-02-05T21:38:14;16.60;;;11.33;;
64868;SDS011;51349;52.424;10.840;2023-02-05T21:43:14;15.53;;;12.20;;
64868;SDS011;51349;52.424;10.840;2023-02-05T21:48:15;17.13;;;12.07;;
64868;SDS011;51349;52.424;10.840;2023-02-05T21:53:15;13.97;;;11.30;;
64868;SDS011;51349;52.424;10.840;2023-02-05T21:58:16;15.27;;;10.63;;
64868;SDS011;51349;52.424;10.840;2023-02-05T22:03:17;15.70;;;11.20;;
64868;SDS011;51349;52.424;10.840;2023-02-05T22:08:17;15.27;;;11.10;;
64868;SDS011;51349;52.424;10.840;2023-02-05T22:13:18;16.10;;;10.97;;
64868;SDS011;51349;52.424;10.840;2023-02-05T22:18:19;13.80;;;10.27;;
64868;SDS011;51349;52.424;10.840;2023-02-05T22:23:19;13.80;;;10.70;;
64868;SDS011;51349;52.424;10.840;2023-02-05T22:28:20;15.43;;;11.50;;
64868;SDS011;51349;52.424;10.840;2023-02-05T22:33:20;13.17;;;11.00;;
64868;SDS011;51349;52.424;10.840;2023-02-05T22:38:21;14.27;;;11.50;;
64868;SDS011;51349;52.424;10.840;2023-02-05T22:43:22;15.67;;;11.33;;
64868;SDS011;51349;52.424;10.840;2023-02-05T22:48:23;15.47;;;10.43;;
64868;SDS011;51349;52.424;10.840;2023-02-05T22:53:23;16.57;;;11.00;;
64868;SDS011;51349;52.424;10.840;2023-02-05T22:58:24;13.33;;;10.20;;
64868;SDS011;51349;52.424;10.840;2023-02-05T23:03:25;13.50;;;10.67;;
64868;SDS011;51349;52.424;10.840;2023-02-05T23:08:25;16.50;;;12.27;;
64868;SDS011;51349;52.424;10.840;2023-02-05T23:13:26;14.60;;;11.70;;
64868;SDS011;51349;52.424;10.840;2023-02-05T23:18:26;19.20;;;12.33;;
64868;SDS011;51349;52.424;10.840;2023-02-05T23:23:27;13.87;;;11.67;;
64868;SDS011;51349;52.424;10.840;2023-02-05T23:28:28;15.17;;;12.30;;
64868;SDS011;51349;52.424;10.840;2023-02-05T23:33:29;18.00;;;12.47;;
64868;SDS011;51349;52.424;10.840;2023-02-05T23:38:30;17.03;;;12.13;;
64868;SDS011;51349;52.424;10.840;2023-02-05T23:43:32;19.30;;;12.80;;
64868;SDS011;51349;52.424;10.840;2023-02-05T23:48:34;14.93;;;12.20;;
64868;SDS011;51349;52.424;10.840;2023-02-05T23:53:35;13.83;;;11.20;;
64868;SDS011;51349;52.424;10.840;2023-02-05T23:58:35;16.63;;;10.37;;
